Portada
METAR-TAF:

METAR-TAF

Aeropuertos :

Bloomington / Normal, Illinois, Estados Unidos

latitud: 40-29N, longitud: 088-55W, altitud: 267 m

Observación

El informe se hizo hace 13 minutos, a las 09:56 UTC
Viento 7 kt del norte-noroeste
Temperatura 21°C
Humedad 88%
Presión 1016 hPa
Visibilidad: 16.1 km
Cielo despejado

METAR: KBMI 060956Z AUTO 34007KT 10SM CLR 21/19 A3001 RMK AO2 SLP153 T02110189

Hora: 05:09 (10:09 UTC)

Pronóstico

El informe se hizo hace 25 minutos, a las 09:44 UTC
Pronóstico válido del 06 a las 10 UTC al 07 a las 06 UTC
Viento 6 kt del norte-noroeste
Visibilidad: 10 km
Nubes dispersas a una altura de 12000 ft
A partir de las 06 a las 1400 UTC
Viento 8 kt del noreste
Visibilidad: 10 km
Nubes dispersas a una altura de 25000 ft

TAF: KBMI 060944Z 0610/0706 34006KT P6SM SCT120 FM061400 05008KT P6SM SCT250

Observaciones y pronósticos meteorológicos de más de 4000 aeropuertos (mensajes METAR y TAF).

Los puntos amarillos y rojos representan las estaciones disponibles.

Ponga el ratón en el punto deseado para ver el nombre de la estación.

Haga clic para ver las observaciones y los pronósticos meteorológicos.

Para cambiar el mapa : haga clic en los botones verdes con una cruz de color negro para hacer un zoom, en el botón verde con un guión para alejar o en las flechas verdes para mapas adyacentes.


METAR-TAF: